Huber Heights, Ohio
Current Conditions -  °F | °C
As of 3:58 PM on Saturday 25 Oct 2014 (Local Time) from KFFO Reporting Station
Clear Clear  
Wind Chill: 74°   Ceiling: Unl
Heat Index: 74°   Visibility: 10mi
Dew Point: 54°   Wind: 13mph
Humidity: 49%   Direction: 260°W
Pressure: 29.88"   Gusts: 21mph
Location:  39.8476°N, 84.1086°W
Report Text: KFFO 251958Z AUTO 26011G18KT 10SM CLR 24/12 A2988 RMK AO2 SLP120 T02350122
Loading
Personal Weather Stations






























Interactive Weather Map
Tropical Storm Tracking
New forecast layout! Learn more

10-Day Weather Forecast

Advertisements
Track Severe Weather on mobile